| Date | Time | Temp. (oF) | Dew Point (oF) | Rel. Hum. (%) | Press. (in.) | Wind Dir. | Wind Speed (mph) | Hourly Rainfall (in.) |
|
|---|---|---|---|---|---|---|---|---|---|
| 1 | 06/25 | 00:00 | 73 | 64 | 75 | 30.13 | S | 5 | 0.00 |
| 2 | 06/24 | 23:00 | 75 | 64 | 71 | 30.13 | SSW | 8 | 0.00 |
| 3 | 06/24 | 22:00 | 76 | 65 | 71 | 30.13 | S | 3 | 0.00 |
| 4 | 06/24 | 21:00 | 77 | 66 | 71 | 30.10 | SSE | 10 | 0.00 |
| 5 | 06/24 | 20:00 | 80 | 67 | 66 | 30.10 | S | 7 | 0.00 |
| 6 | 06/24 | 19:00 | 82 | 67 | 62 | 30.09 | SSE | 7 | 0.00 |
| 7 | 06/24 | 18:00 | 83 | 68 | 62 | 30.09 | S | 7 | 0.00 |
| 8 | 06/24 | 17:00 | 86 | 68 | 57 | 30.09 | S | 4 | 0.00 |
| 9 | 06/24 | 16:00 | 86 | 68 | 56 | 30.11 | SSW | 8 | 0.00 |
| 10 | 06/24 | 15:00 | 85 | 66 | 54 | 30.13 | S | 9 | 0.00 |
| 11 | 06/24 | 14:00 | 85 | 66 | 55 | 30.14 | S | 13 | 0.00 |
| 12 | 06/24 | 13:00 | 83 | 65 | 55 | 30.15 | SSW | 6 | 0.00 |
| 13 | 06/24 | 12:00 | 81 | 64 | 58 | 30.17 | SSE | 7 | 0.00 |
| 14 | 06/24 | 11:00 | 79 | 63 | 59 | 30.18 | S | 8 | 0.00 |
| 15 | 06/24 | 10:00 | 76 | 64 | 67 | 30.18 | SSW | 6 | 0.00 |
| 16 | 06/24 | 09:00 | 71 | 64 | 81 | 30.20 | SW | 6 | 0.00 |
| 17 | 06/24 | 08:00 | 66 | 66 | 100 | 30.20 | S | 2 | 0.00 |
| 18 | 06/24 | 07:00 | 63 | 63 | 100 | 30.20 | E | 0 | 0.00 |
| 19 | 06/24 | 06:00 | 62 | 61 | 98 | 30.19 | E | 0 | 0.00 |
| 20 | 06/24 | 05:00 | 64 | 63 | 99 | 30.16 | E | 1 | 0.00 |
| 21 | 06/24 | 04:00 | 65 | 64 | 99 | 30.16 | SSW | 0 | 0.00 |
| 22 | 06/24 | 03:00 | 66 | 65 | 99 | 30.15 | S | 1 | 0.00 |
| 23 | 06/24 | 02:00 | 67 | 65 | 94 | 30.16 | S | 1 | 0.00 |
| 24 | 06/24 | 01:00 | 67 | 64 | 93 | 30.15 | SSW | 3 | 0.00 |